x

Grays Reef - 40 Nm Southeast Of Savannah, Ga (41008) Wave Buoy

6:50am - Thu 30th Jun 2016 All times are EDT. -4 hours from GMT.

  • Sig Wave height 2.3ft
  • Swell Direction
  • Peak Period 9s
  • Average Period 4s
  • Wind
    11mph, 16mph gusts
  • Sea Temp 83°f
  • Air Temp 80°f
  • Sea Pressure 1014.9mb
  • Grays Reef - 40 Nm Southeast Of Savannah, Ga
  • Grays Reef - 40 Nm Southeast Of Savannah, Ga

More Historic Weather Station data

Upgrade to MSW Pro to gain access to the past 30 days of data for over 8000 Wavebouys and Weather Stations around the globe.

Join Pro

Comparision Forecast

View Surf forecast
   
Thu 06/30 6:50am 2.5ft 9s 4s 11 16 mph 1014.9mb 83f 80f
5:50am 2.5ft 4s 4s 13 16 mph 1014.2mb 83f 80f
4:50am 2.5ft 5s 4s 13 16 mph 1013.8mb 83f 81f
3:50am 2.5ft 5s 4s 9 11 mph 1013.8mb 83f 80f
2:50am 2.5ft 5s 4s 11 13 mph 1014.4mb 83f 81f
1:50am 2.5ft 9s 4s 13 16 mph 1014.7mb 83f 82f
12:50am 2.5ft 8s 4s 16 20 mph 1014.6mb 83f 82f
Wed 06/29 11:50pm 2ft 8s 4s 13 18 mph 1014.8mb 83f 83f
10:50pm 2ft 6s 4s 13 16 mph 1014.8mb 84f 83f
9:50pm 2ft 9s 5s 16 18 mph 1014.7mb 84f 82f
8:50pm 2ft 6s 5s 11 13 mph 1014.3mb 84f 82f
7:50pm 2.5ft 6s 5s 4 7 mph 1014.2mb 84f 82f
6:50pm 2.5ft 6s 5s 2
mph
1014mb 84f 82f
5:50pm 2.5ft 9s 5s 2 4 mph 1014.6mb 84f 82f
4:50pm 2ft 9s 5s 4 7 mph 1013.9mb 84f 82f
3:50pm 2ft 8s 5s 2
mph
1014.1mb 84f 82f
2:50pm 2ft 8s 5s 2
mph
1014.5mb 84f 81f
1:50pm 2ft 8s 5s 4 7 mph 1014.9mb 84f 81f
12:50pm 2ft 8s 5s 7 9 mph 1015.1mb 83f 80f
11:50am 2ft 8s 5s 9 11 mph 1015.1mb 83f 80f
10:50am 2ft 9s 5s 9 11 mph 1015.1mb 83f 80f
9:50am 2ft 8s 5s 9 11 mph 1015mb 83f 81f
8:50am 2ft 9s 4s 9 11 mph 1014.6mb 83f 81f
7:50am 2.5ft 9s 4s 7 9 mph 1013.9mb 82f 80f
6:50am 2.5ft 9s 4s 9 11 mph 1013.4mb 82f 80f
5:50am 2.5ft 9s 4s 11
mph
1013mb 82f 80f
3:50am 2.5ft 9s 4s 18 22 mph 1011.7mb 82f 80f
2:50am 2.5ft 5s 4s 20 22 mph 1012.5mb 82f 80f
1:50am 3.5ft 5s 4s 18 20 mph 1013.7mb 82f 76f
12:50am 3.5ft 5s 4s 11 18 mph 1014.9mb 83f 75f
Tue 06/28 11:50pm 3ft 4s 4s 16 20 mph 1015mb 83f 80f
10:50pm 3ft 4s 4s 16 20 mph 1014.2mb 83f 83f
9:50pm 2.5ft 4s 4s 18 20 mph 1013.6mb 83f 83f
8:50pm 2.5ft 8s 4s 18 20 mph 1012.8mb 83f 83f
7:50pm 2ft 8s 4s 16 18 mph 1012.4mb 83f 83f
6:50pm 2ft 8s 4s 16 18 mph 1012.6mb 84f 83f
5:50pm 1.6ft 8s 4s 13 16 mph 1012.3mb 84f 83f
4:50pm 1.6ft 9s 5s 13
mph
1012.7mb 84f 83f
3:50pm 1.6ft 8s 5s 11 13 mph 1013mb 84f 83f
2:50pm 2ft 8s 5s 11
mph
1014mb 84f 82f
1:50pm 1.6ft 8s 5s 9
mph
1015.1mb 84f 83f
12:50pm 1.6ft 8s 5s 7 9 mph 1015.4mb 83f 82f
11:50am 2ft 8s 5s 9 11 mph 1015.8mb 83f 82f
10:50am 1.6ft 8s 5s 9
mph
1015.8mb 83f 82f
9:50am 1.6ft 8s 5s 4 7 mph 1015.8mb 82f 82f
8:50am 1.6ft 8s 5s 9 11 mph 1015.5mb 82f 82f
7:50am 1.6ft 9s 4s 7 9 mph 1014.9mb 82f 82f
6:50am 2ft 10s 4s 7
mph
1014.8mb 82f 81f
5:50am 1.6ft 9s 4s 13 16 mph 1014.4mb 82f 80f
4:50am 2ft 9s 5s 11 13 mph 1014.3mb 82f 81f
3:50am 2ft 8s 5s 4
mph
1014.5mb 82f 80f
2:50am 2.5ft 8s 5s 2
mph
1014.5mb 82f 81f
1:50am 2.5ft 8s 5s 2 4 mph 1015.2mb 82f 81f
12:50am 2.5ft 8s 5s 4 7 mph 1015.8mb 82f 81f
Mon 06/27 11:50pm 2.5ft 8s 4s 4 7 mph 1016.5mb 82f 81f
10:50pm 2.5ft 8s 5s 9
mph
1016.3mb 83f 81f
9:50pm 2.5ft 8s 4s 9 11 mph 1015.7mb 83f 81f
8:50pm 2.5ft 8s 4s 9 11 mph 1015mb 83f 81f
7:50pm 2.5ft 8s 5s 11 13 mph 1014.7mb 83f 81f
6:50pm 2.5ft 9s 5s 11 13 mph 1014.9mb 83f 81f
5:50pm 2.5ft 9s 5s 9 11 mph 1015.1mb 83f 81f
4:50pm 2.5ft 9s 5s 11 13 mph 1015.8mb 83f 82f
3:50pm 2.5ft 8s 4s 11 13 mph 1016.6mb 83f 82f
2:50pm 2.5ft 8s 5s 13
mph
1017.2mb 83f 81f
1:50pm 2.5ft 8s 5s 9 11 mph 1017.6mb 83f 81f
12:50pm 2.5ft 8s 4s 11 13 mph 1018.1mb 82f 80f
11:50am 2.5ft 8s 4s 11 13 mph 1018.4mb 82f 80f
10:50am 2.5ft 8s 4s 11 13 mph 1018.2mb 82f 80f
9:50am 2.5ft 8s 4s 13
mph
1018.5mb 82f 80f
8:50am 2.5ft 8s 5s 11 13 mph 1018.4mb 82f 80f
7:50am 2.5ft 8s 5s 11 13 mph 1018.4mb 82f 81f
6:50am 2.5ft 8s 5s 9 11 mph 1018.3mb 82f 80f
5:50am 2.5ft 9s 5s 9 11 mph 1018mb 82f 80f
4:50am 2.5ft 9s 5s 7 9 mph 1017.9mb 82f 80f
3:50am 2.5ft 8s 5s 7 9 mph 1017.7mb 82f 80f
2:50am 2.5ft 9s 5s 4 7 mph 1017.7mb 82f 80f
1:50am 3ft 8s 5s 9 11 mph 1017.5mb 82f 80f
12:50am 3ft 6s 5s 13 16 mph 1017.7mb 82f 80f
Sun 06/26 11:50pm 3ft 8s 4s 13 16 mph 1017.8mb 82f 81f
10:50pm 3.5ft 5s 4s 13 16 mph 1018.3mb 82f 81f
9:50pm 3.5ft 6s 5s 13 16 mph 1018.4mb 83f 81f
8:50pm 3.5ft 5s 4s 13 16 mph 1018.3mb 83f 81f
7:50pm 3.5ft 5s 4s 13 16 mph 1018.2mb 83f 81f
6:50pm 3ft 5s 4s 16 18 mph 1017.8mb 83f 82f
5:50pm 3ft 4s 4s 16 20 mph 1017.5mb 83f 82f
4:50pm 2.5ft 9s 4s 20 22 mph 1017.5mb 84f 82f
3:50pm 2.5ft 5s 4s 18 22 mph 1018.1mb 85f 82f
2:50pm 2.5ft 9s 5s 11 13 mph 1019.2mb 85f 81f
1:50pm 3ft 9s 5s 9 11 mph 1020mb 85f 82f
12:50pm 2.5ft 8s 5s 11 13 mph 1020mb 84f 83f